Time;durP1;ratioP1;P1;durP2;ratioP2;P2;SDS_P1;SDS_P2;PMS_P1;PMS_P2;Temp;Humidity;BMP_temperature;BMP_pressure;BME280_temperature;BME280_humidity;BME280_pressure;Samples;Min_cycle;Max_cycle;Signal;HPM_P1;HPM_P2
2023/10/08 00:02:33;;;;;;;;;;;;;;;13.56;100.00;101367.88;5090828;28;19964;-69
2023/10/08 00:05:18;;;;;;;;;;;;;;;13.46;100.00;101365.19;5070619;28;19915;-69
2023/10/08 00:08:04;;;;;;;;;;;;;;;13.47;100.00;101368.81;5115061;28;19914;-69
2023/10/08 00:10:48;;;;;;;;;;;;;;;13.45;100.00;101371.03;5120279;28;19919;-68
2023/10/08 00:13:39;;;;;;;;;;;;;;;13.41;100.00;101368.03;5108370;28;19952;-69
2023/10/08 00:16:23;;;;;;;;;;;;;;;13.37;100.00;101372.50;5092072;28;20374;-69
2023/10/08 00:19:08;;;;;;;;;;;;;;;13.38;100.00;101376.97;5098724;28;19915;-69
2023/10/08 00:21:53;;;;;;;;;;;;;;;13.33;100.00;101374.22;5109204;28;19965;-69
2023/10/08 00:24:40;;;;;;;;;;;;;;;13.32;100.00;101370.59;5092089;28;19914;-69
2023/10/08 00:27:24;;;;;;;;;;;;;;;13.31;100.00;101377.28;5119718;28;20002;-69
2023/10/08 00:30:17;;;;;;;;;;;;;;;13.28;100.00;101377.06;5119277;28;19962;-69
2023/10/08 00:33:03;;;;;;;;;;;;;;;13.24;100.00;101381.53;5117774;27;19985;-69
2023/10/08 00:35:47;;;;;;;;;;;;;;;13.21;100.00;101377.34;5119354;28;19991;-69
2023/10/08 00:38:32;;;;;;;;;;;;;;;13.16;100.00;101374.59;5108736;28;19914;-69
2023/10/08 00:41:16;;;;;;;;;;;;;;;13.14;100.00;101379.63;5100187;28;19977;-69
2023/10/08 00:44:00;;;;;;;;;;;;;;;13.13;100.00;101386.34;5092179;28;19914;-69
2023/10/08 00:46:50;;;;;;;;;;;;;;;13.06;100.00;101383.03;5107898;28;19919;-69
2023/10/08 00:52:30;;;;;;;;;;;;;;;12.99;100.00;101377.78;5096757;28;20275;-69
2023/10/08 00:55:28;;;;;;;;;;;;;;;12.96;100.00;101386.75;5090819;28;20286;-69
2023/10/08 00:58:23;;;;;;;;;;;;;;;12.92;100.00;101375.31;5108743;28;20362;-69
2023/10/08 01:01:10;;;;;;;;;;;;;;;12.90;100.00;101376.75;5113119;28;19921;-69
2023/10/08 01:03:55;;;;;;;;;;;;;;;12.88;100.00;101382.59;5106350;28;19915;-69
2023/10/08 01:06:39;;;;;;;;;;;;;;;12.86;100.00;101386.78;5105434;28;20365;-69
2023/10/08 01:09:31;;;;;;;;;;;;;;;12.85;100.00;101385.13;5109043;28;19930;-69
2023/10/08 01:12:22;;;;;;;;;;;;;;;12.81;100.00;101384.03;5118856;28;20048;-69
2023/10/08 01:15:16;;;;;;;;;;;;;;;12.81;100.00;101378.47;5092951;28;20044;-69
2023/10/08 01:18:04;;;;;;;;;;;;;;;12.78;100.00;101379.88;5118877;28;19915;-69
2023/10/08 01:23:38;;;;;;;;;;;;;;;12.77;100.00;101377.38;5108088;28;19914;-69
2023/10/08 01:26:22;;;;;;;;;;;;;;;12.73;100.00;101374.31;5104055;28;19961;-69
2023/10/08 01:29:18;;;;;;;;;;;;;;;12.68;100.00;101372.41;5110755;28;20506;-69
2023/10/08 01:32:03;;;;;;;;;;;;;;;12.67;100.00;101370.72;5100138;27;19919;-69
2023/10/08 01:34:46;;;;;;;;;;;;;;;12.65;100.00;101375.78;5118820;28;20003;-69
2023/10/08 01:37:33;;;;;;;;;;;;;;;12.63;100.00;101366.84;5100928;28;19923;-69
2023/10/08 01:40:18;;;;;;;;;;;;;;;12.57;100.00;101367.19;5105557;28;19984;-69
2023/10/08 01:43:05;;;;;;;;;;;;;;;12.56;100.00;101371.06;5090759;28;19930;-69
2023/10/08 01:45:50;;;;;;;;;;;;;;;12.56;100.00;101363.53;5078462;28;20343;-69
2023/10/08 01:48:37;;;;;;;;;;;;;;;12.51;100.00;101366.38;5100905;28;19915;-69
2023/10/08 01:51:37;;;;;;;;;;;;;;;12.46;100.00;101360.81;5110894;28;19962;-69
2023/10/08 01:54:21;;;;;;;;;;;;;;;12.44;100.00;101368.63;5097213;28;19915;-69
2023/10/08 01:57:08;;;;;;;;;;;;;;;12.42;100.00;101362.50;5115517;28;19954;-69
2023/10/08 01:59:52;;;;;;;;;;;;;;;12.42;100.00;101368.06;5118031;28;20251;-69
2023/10/08 02:02:40;;;;;;;;;;;;;;;12.36;100.00;101361.69;5117901;28;19915;-68
2023/10/08 02:05:25;;;;;;;;;;;;;;;12.32;100.00;101355.03;5106201;28;20266;-69
2023/10/08 02:08:10;;;;;;;;;;;;;;;12.29;100.00;101356.44;5104898;28;19999;-69
2023/10/08 02:10:53;;;;;;;;;;;;;;;12.33;100.00;101344.72;5102167;28;19933;-69
2023/10/08 02:13:37;;;;;;;;;;;;;;;12.29;100.00;101345.31;5107150;28;20005;-69
2023/10/08 02:16:22;;;;;;;;;;;;;;;12.22;100.00;101347.53;5117743;28;19952;-69
2023/10/08 02:19:06;;;;;;;;;;;;;;;12.23;100.00;101348.38;5110709;28;19919;-69
2023/10/08 02:21:50;;;;;;;;;;;;;;;12.19;100.00;101345.34;5092022;28;19957;-69
2023/10/08 02:24:35;;;;;;;;;;;;;;;12.11;100.00;101351.50;5117955;28;20414;-69
2023/10/08 02:27:19;;;;;;;;;;;;;;;12.08;100.00;101349.28;5117702;28;19953;-69
2023/10/08 02:30:06;;;;;;;;;;;;;;;12.10;100.00;101349.00;5089075;28;19968;-69
2023/10/08 02:32:53;;;;;;;;;;;;;;;12.10;100.00;101347.03;5099486;28;20259;-69
2023/10/08 02:35:37;;;;;;;;;;;;;;;12.04;100.00;101337.06;5120964;28;20019;-69
2023/10/08 02:38:24;;;;;;;;;;;;;;;12.00;100.00;101331.19;5113675;28;19932;-69
2023/10/08 02:41:08;;;;;;;;;;;;;;;12.01;100.00;101330.09;5122088;28;20287;-69
2023/10/08 02:43:52;;;;;;;;;;;;;;;11.96;100.00;101330.09;5119599;28;19918;-69
2023/10/08 02:46:37;;;;;;;;;;;;;;;11.92;100.00;101328.16;5121747;28;19952;-69
2023/10/08 02:49:22;;;;;;;;;;;;;;;11.90;100.00;101328.47;5121625;28;20259;-69
2023/10/08 02:52:06;;;;;;;;;;;;;;;11.90;100.00;101322.06;5107645;28;19936;-69
2023/10/08 02:54:53;;;;;;;;;;;;;;;11.87;100.00;101319.81;5096306;28;19919;-68
2023/10/08 02:57:37;;;;;;;;;;;;;;;11.87;100.00;101317.03;5121616;28;19929;-69
2023/10/08 03:00:21;;;;;;;;;;;;;;;11.82;100.00;101321.50;5098929;28;19915;-69
2023/10/08 03:03:15;;;;;;;;;;;;;;;11.79;100.00;101318.44;5116689;28;20639;-69
2023/10/08 03:06:03;;;;;;;;;;;;;;;11.77;100.00;101315.09;5113722;28;20301;-69
2023/10/08 03:08:47;;;;;;;;;;;;;;;11.75;100.00;101312.59;5110404;28;19918;-69
2023/10/08 03:11:31;;;;;;;;;;;;;;;11.73;100.00;101314.00;5105736;28;19964;-68
2023/10/08 03:14:21;;;;;;;;;;;;;;;11.69;100.00;101302.59;5092284;28;20063;-69
2023/10/08 03:17:07;;;;;;;;;;;;;;;11.70;100.00;101306.22;5103098;28;19930;-69
2023/10/08 03:19:52;;;;;;;;;;;;;;;11.68;100.00;101300.94;5095399;28;19918;-69
2023/10/08 03:22:37;;;;;;;;;;;;;;;11.65;100.00;101295.94;5108171;28;20003;-69
2023/10/08 03:25:23;;;;;;;;;;;;;;;11.64;100.00;101299.81;5112628;28;19972;-69
2023/10/08 03:28:09;;;;;;;;;;;;;;;11.61;100.00;101300.38;5103717;28;19915;-69
2023/10/08 03:31:02;;;;;;;;;;;;;;;11.63;100.00;101295.38;5117475;28;20249;-68
2023/10/08 03:33:51;;;;;;;;;;;;;;;11.58;100.00;101300.97;5112592;28;20512;-68
2023/10/08 03:36:36;;;;;;;;;;;;;;;11.58;100.00;101295.41;5098722;28;19923;-69
2023/10/08 03:39:20;;;;;;;;;;;;;;;11.55;100.00;101302.34;5095055;28;19914;-68
2023/10/08 03:42:09;;;;;;;;;;;;;;;11.57;100.00;101299.31;5103168;28;19960;-69
2023/10/08 03:44:55;;;;;;;;;;;;;;;11.56;100.00;101297.63;5114740;28;19915;-69
2023/10/08 03:47:46;;;;;;;;;;;;;;;11.52;100.00;101302.09;5120953;28;19937;-69
2023/10/08 03:50:40;;;;;;;;;;;;;;;11.49;100.00;101300.69;5095417;28;20366;-69
2023/10/08 03:53:25;;;;;;;;;;;;;;;11.44;100.00;101305.44;5105130;28;19914;-69
2023/10/08 03:56:09;;;;;;;;;;;;;;;11.41;100.00;101309.63;5102069;28;19973;-69
2023/10/08 03:58:54;;;;;;;;;;;;;;;11.41;100.00;101312.38;5072045;28;19918;-69
2023/10/08 04:01:41;;;;;;;;;;;;;;;11.38;100.00;101310.19;5111693;28;19972;-69
2023/10/08 04:04:48;;;;;;;;;;;;;;;11.35;100.00;101316.31;5111676;28;19953;-69
2023/10/08 04:10:38;;;;;;;;;;;;;;;11.31;100.00;101313.25;5107245;28;20401;-69
2023/10/08 04:13:20;;;;;;;;;;;;;;;11.28;100.00;101308.25;5119898;28;19938;-68
2023/10/08 04:16:05;;;;;;;;;;;;;;;11.28;100.00;101302.69;5120429;28;19960;-69
2023/10/08 04:18:50;;;;;;;;;;;;;;;11.24;100.00;101297.97;5110639;28;20401;-69
2023/10/08 04:21:34;;;;;;;;;;;;;;;11.20;100.00;101303.25;5093123;28;19914;-69
2023/10/08 04:24:19;;;;;;;;;;;;;;;11.15;100.00;101294.91;5120088;28;19961;-69
2023/10/08 04:27:05;;;;;;;;;;;;;;;11.16;100.00;101299.34;5119708;28;20014;-69
2023/10/08 04:29:50;;;;;;;;;;;;;;;11.14;100.00;101293.22;5096415;28;20007;-69
2023/10/08 04:32:34;;;;;;;;;;;;;;;11.11;100.00;101291.00;5117751;27;19957;-69
2023/10/08 04:35:19;;;;;;;;;;;;;;;11.07;100.00;101290.72;5110078;28;19915;-69
2023/10/08 04:38:04;;;;;;;;;;;;;;;11.04;100.00;101290.47;5110544;28;19914;-69
2023/10/08 04:40:50;;;;;;;;;;;;;;;11.04;100.00;101290.47;5105019;28;19976;-68
2023/10/08 04:43:37;;;;;;;;;;;;;;;10.99;100.00;101294.06;5108959;28;20355;-69
2023/10/08 04:46:34;;;;;;;;;;;;;;;10.95;100.00;101288.25;5112820;28;19968;-69
2023/10/08 04:49:26;;;;;;;;;;;;;;;10.94;100.00;101292.13;5108249;28;19931;-69
2023/10/08 04:52:19;;;;;;;;;;;;;;;10.92;100.00;101294.34;5089967;28;19957;-68
2023/10/08 04:55:15;;;;;;;;;;;;;;;10.98;100.00;101292.41;5093389;28;19968;-69
2023/10/08 04:58:00;;;;;;;;;;;;;;;10.93;100.00;101296.00;5112812;28;19914;-69
2023/10/08 05:00:53;;;;;;;;;;;;;;;10.92;100.00;101294.34;5115076;28;19915;-69
2023/10/08 05:03:49;;;;;;;;;;;;;;;10.91;100.00;101289.88;5091627;28;19929;-69
2023/10/08 05:12:11;;;;;;;;;;;;;;;10.90;100.00;101292.97;5118396;28;19937;-68
2023/10/08 05:15:14;;;;;;;;;;;;;;;10.91;100.00;101303.78;5103813;28;19971;-69
2023/10/08 05:18:12;;;;;;;;;;;;;;;10.93;100.00;101309.91;5115927;28;19915;-69
2023/10/08 05:21:02;;;;;;;;;;;;;;;10.92;100.00;101318.50;5113613;28;19956;-68
2023/10/08 05:24:08;;;;;;;;;;;;;;;10.93;100.00;101320.19;5109953;28;19915;-69
2023/10/08 05:27:09;;;;;;;;;;;;;;;10.91;100.00;101317.69;5110474;28;19917;-69
2023/10/08 05:30:15;;;;;;;;;;;;;;;10.90;100.00;101318.81;5090336;28;19918;-69
2023/10/08 05:38:48;;;;;;;;;;;;;;;10.85;100.00;101323.53;5117921;28;20390;-69
2023/10/08 05:41:39;;;;;;;;;;;;;;;10.84;100.00;101314.34;5117840;28;19915;-69
2023/10/08 05:47:38;;;;;;;;;;;;;;;10.82;100.00;101321.31;5103798;28;19973;-69
2023/10/08 05:53:12;;;;;;;;;;;;;;;10.78;100.00;101318.25;5108430;28;19914;-69
2023/10/08 05:56:16;;;;;;;;;;;;;;;10.82;100.00;101316.56;5107958;28;19914;-69
2023/10/08 05:59:14;;;;;;;;;;;;;;;10.81;100.00;101316.84;5093984;28;19918;-69
2023/10/08 06:02:06;;;;;;;;;;;;;;;10.75;100.00;101327.09;5090727;28;19915;-69
2023/10/08 06:13:44;;;;;;;;;;;;;;;10.75;100.00;101332.66;5104208;28;19960;-69
2023/10/08 06:16:41;;;;;;;;;;;;;;;10.74;100.00;101331.00;5106548;28;19915;-69
2023/10/08 06:19:25;;;;;;;;;;;;;;;10.74;100.00;101328.22;5113658;28;19915;-69
2023/10/08 06:22:09;;;;;;;;;;;;;;;10.74;100.00;101333.78;5109086;28;20263;-69
2023/10/08 06:25:15;;;;;;;;;;;;;;;10.73;100.00;101334.91;5094384;28;19930;-69
2023/10/08 06:27:57;;;;;;;;;;;;;;;10.71;100.00;101331.56;5092865;28;19931;-69
2023/10/08 06:30:41;;;;;;;;;;;;;;;10.71;100.00;101321.28;5104681;28;19918;-69
2023/10/08 06:33:26;;;;;;;;;;;;;;;10.70;100.00;101325.19;5098369;28;20466;-69
2023/10/08 06:38:54;;;;;;;;;;;;;;;10.66;100.00;101334.31;5117128;28;20313;-69
2023/10/08 06:41:42;;;;;;;;;;;;;;;10.66;100.00;101337.94;5110541;28;19915;-69
2023/10/08 06:44:27;;;;;;;;;;;;;;;10.62;100.00;101339.59;5112485;28;19914;-69
2023/10/08 06:47:13;;;;;;;;;;;;;;;10.61;100.00;101348.19;5117490;28;19998;-69
2023/10/08 06:49:58;;;;;;;;;;;;;;;10.65;100.00;101349.34;5105744;28;19944;-67
2023/10/08 06:52:43;;;;;;;;;;;;;;;10.68;100.00;101354.34;5110385;28;20064;-70
2023/10/08 06:55:27;;;;;;;;;;;;;;;10.71;100.00;101353.78;5087834;28;19919;-69
2023/10/08 06:58:11;;;;;;;;;;;;;;;10.75;100.00;101354.88;5088421;28;19919;-70
2023/10/08 07:00:58;;;;;;;;;;;;;;;10.79;100.00;101356.03;5117261;28;20330;-70
2023/10/08 07:03:42;;;;;;;;;;;;;;;10.83;100.00;101359.09;5097786;28;19914;-70
2023/10/08 07:06:31;;;;;;;;;;;;;;;10.88;100.00;101346.03;5117355;28;19961;-69
2023/10/08 07:12:14;;;;;;;;;;;;;;;11.03;100.00;101347.16;5097047;28;19919;-70
2023/10/08 07:14:58;;;;;;;;;;;;;;;11.11;100.00;101352.16;5103821;28;20037;-70
2023/10/08 07:17:43;;;;;;;;;;;;;;;11.21;100.00;101362.47;5114276;28;20004;-70
2023/10/08 07:20:28;;;;;;;;;;;;;;;11.27;100.00;101361.34;5111937;28;19954;-70
2023/10/08 07:23:19;;;;;;;;;;;;;;;11.34;100.00;101368.31;5109170;28;19957;-69
2023/10/08 07:26:12;;;;;;;;;;;;;;;11.47;100.00;101371.63;5107788;28;20235;-70
2023/10/08 07:28:56;;;;;;;;;;;;;;;11.59;100.00;101375.81;5109006;28;19914;-70
2023/10/08 07:31:41;;;;;;;;;;;;;;;11.71;100.00;101377.47;5114988;27;19929;-70
2023/10/08 07:37:11;;;;;;;;;;;;;;;11.97;100.00;101367.13;5110773;28;19923;-70
2023/10/08 07:39:55;;;;;;;;;;;;;;;12.11;100.00;101372.94;5107172;28;19957;-70
2023/10/08 07:42:39;;;;;;;;;;;;;;;12.22;100.00;101361.47;5093239;28;19922;-70
2023/10/08 07:45:23;;;;;;;;;;;;;;;12.40;100.00;101361.97;5105155;28;19918;-70
2023/10/08 07:48:09;;;;;;;;;;;;;;;12.54;100.00;101360.22;5120345;28;19954;-70
2023/10/08 07:50:53;;;;;;;;;;;;;;;12.71;100.00;101362.66;5120423;28;19926;-70
2023/10/08 07:53:37;;;;;;;;;;;;;;;12.87;100.00;101357.78;5101524;28;19961;-70
2023/10/08 07:56:22;;;;;;;;;;;;;;;13.03;100.00;101359.34;5105761;28;19934;-70
2023/10/08 07:59:08;;;;;;;;;;;;;;;13.21;100.00;101369.00;5097488;28;19999;-70
2023/10/08 08:01:53;;;;;;;;;;;;;;;13.38;100.00;101365.81;5119596;28;19958;-70
2023/10/08 08:04:45;;;;;;;;;;;;;;;13.54;100.00;101374.88;5099490;28;19919;-70
2023/10/08 08:07:29;;;;;;;;;;;;;;;13.72;100.00;101376.09;5087955;28;19919;-70
2023/10/08 08:10:14;;;;;;;;;;;;;;;13.87;100.00;101387.09;5119667;28;20316;-70
2023/10/08 08:12:57;;;;;;;;;;;;;;;14.02;100.00;101392.53;5104422;28;19965;-70
2023/10/08 08:15:43;;;;;;;;;;;;;;;14.18;100.00;101386.78;5111506;28;19996;-70
2023/10/08 08:18:32;;;;;;;;;;;;;;;14.36;100.00;101383.22;5096102;28;20264;-70
2023/10/08 08:21:17;;;;;;;;;;;;;;;14.57;100.00;101380.19;5106075;28;19930;-70
2023/10/08 08:24:07;;;;;;;;;;;;;;;14.72;100.00;101377.19;5104309;28;19994;-70
2023/10/08 08:27:01;;;;;;;;;;;;;;;14.90;100.00;101373.53;5092348;28;19915;-70
2023/10/08 08:29:45;;;;;;;;;;;;;;;15.09;100.00;101375.53;5097047;28;19934;-70
2023/10/08 08:32:29;;;;;;;;;;;;;;;15.27;100.00;101376.66;5102485;28;19957;-70
2023/10/08 08:35:16;;;;;;;;;;;;;;;15.42;100.00;101373.59;5119743;28;19976;-70
2023/10/08 08:38:00;;;;;;;;;;;;;;;15.61;100.00;101377.16;5097996;28;20396;-70
2023/10/08 08:40:44;;;;;;;;;;;;;;;15.79;100.00;101371.84;5104809;28;19919;-70
2023/10/08 08:43:33;;;;;;;;;;;;;;;15.93;100.00;101371.88;5118371;28;19914;-70
2023/10/08 08:46:18;;;;;;;;;;;;;;;16.12;100.00;101367.00;5089736;28;19915;-70
2023/10/08 08:49:03;;;;;;;;;;;;;;;16.28;100.00;101376.75;5106169;28;19914;-70
2023/10/08 08:51:52;;;;;;;;;;;;;;;16.46;100.00;101366.56;5106285;28;19918;-71
2023/10/08 08:54:36;;;;;;;;;;;;;;;16.63;100.00;101371.56;5107135;28;20326;-70
2023/10/08 08:57:20;;;;;;;;;;;;;;;16.81;100.00;101368.94;5094016;28;19914;-70
2023/10/08 09:00:09;;;;;;;;;;;;;;;16.95;100.00;101375.34;5106358;28;19915;-70
2023/10/08 09:02:55;;;;;;;;;;;;;;;17.12;100.00;101369.06;5098698;28;19966;-70
2023/10/08 09:05:40;;;;;;;;;;;;;;;17.32;100.00;101362.94;5114329;28;20010;-71
2023/10/08 09:08:34;;;;;;;;;;;;;;;17.50;100.00;101374.31;5117253;28;19918;-71
2023/10/08 09:11:18;;;;;;;;;;;;;;;17.69;100.00;101360.03;5103317;28;19918;-71
2023/10/08 09:14:02;;;;;;;;;;;;;;;17.91;100.00;101370.44;5118890;28;19958;-70
2023/10/08 09:16:46;;;;;;;;;;;;;;;18.07;100.00;101364.06;5101576;28;19914;-71
2023/10/08 09:19:35;;;;;;;;;;;;;;;18.23;100.00;101369.25;5118832;28;19915;-71
2023/10/08 09:22:19;;;;;;;;;;;;;;;18.38;100.00;101368.81;5097414;28;20044;-71
2023/10/08 09:25:07;;;;;;;;;;;;;;;18.53;100.00;101368.38;5103373;28;19998;-71
2023/10/08 09:27:55;;;;;;;;;;;;;;;18.65;100.00;101367.72;5077536;28;19915;-71
2023/10/08 09:30:39;;;;;;;;;;;;;;;18.77;100.00;101355.03;5100642;28;20394;-71
2023/10/08 09:33:23;;;;;;;;;;;;;;;18.91;100.00;101362.16;5100268;28;19957;-71
2023/10/08 09:36:10;;;;;;;;;;;;;;;19.01;100.00;101354.56;5096540;28;20006;-71
2023/10/08 09:38:54;;;;;;;;;;;;;;;19.12;100.00;101361.50;5104952;28;19991;-71
2023/10/08 09:41:38;;;;;;;;;;;;;;;19.27;100.00;101371.44;5094312;28;19914;-71
2023/10/08 09:44:25;;;;;;;;;;;;;;;19.36;100.00;101375.91;5098776;28;19976;-71
2023/10/08 09:47:10;;;;;;;;;;;;;;;19.48;100.00;101374.41;5102510;28;19915;-71
2023/10/08 09:49:59;;;;;;;;;;;;;;;19.62;100.00;101369.41;5109244;28;19960;-71
2023/10/08 09:52:53;;;;;;;;;;;;;;;19.73;100.00;101370.72;5102606;28;20056;-71
2023/10/08 09:55:37;;;;;;;;;;;;;;;19.89;100.00;101373.00;5090633;28;19915;-71
2023/10/08 09:58:22;;;;;;;;;;;;;;;20.02;100.00;101371.97;5117391;28;19915;-71
2023/10/08 10:01:07;;;;;;;;;;;;;;;20.17;100.00;101368.59;5117674;28;20419;-71
2023/10/08 10:04:04;;;;;;;;;;;;;;;20.29;100.00;101368.69;5117475;28;19915;-71
2023/10/08 10:06:48;;;;;;;;;;;;;;;20.50;100.00;101359.44;5103599;28;19914;-72
2023/10/08 10:09:36;;;;;;;;;;;;;;;20.68;100.00;101354.56;5091978;28;19937;-70
2023/10/08 10:12:25;;;;;;;;;;;;;;;20.85;100.00;101348.78;5094770;28;20045;-70
2023/10/08 10:15:10;;;;;;;;;;;;;;;21.02;100.00;101347.00;5094095;28;20037;-70
2023/10/08 10:17:56;;;;;;;;;;;;;;;21.14;100.00;101350.69;5115107;28;19968;-70
2023/10/08 10:20:41;;;;;;;;;;;;;;;21.28;100.00;101349.59;5097013;28;19950;-70
2023/10/08 10:23:40;;;;;;;;;;;;;;;21.41;100.00;101348.50;5092051;28;19968;-70
2023/10/08 10:26:30;;;;;;;;;;;;;;;21.56;100.00;101356.34;5105978;28;19915;-69
2023/10/08 10:29:14;;;;;;;;;;;;;;;21.66;100.00;101342.94;5117438;28;19929;-70
2023/10/08 10:32:00;;;;;;;;;;;;;;;21.71;100.00;101345.53;5121880;28;19919;-70
2023/10/08 10:34:47;;;;;;;;;;;;;;;21.73;100.00;101343.16;5111884;28;20198;-70
2023/10/08 10:37:41;;;;;;;;;;;;;;;21.78;100.00;101351.44;5082453;28;20060;-70
2023/10/08 10:40:40;;;;;;;;;;;;;;;21.81;100.00;101347.91;5104361;28;19914;-70
2023/10/08 10:43:32;;;;;;;;;;;;;;;21.87;100.00;101346.53;5108513;28;19914;-70
2023/10/08 10:46:50;;;;;;;;;;;;;;;21.97;100.00;101339.56;5110300;28;20420;-69
2023/10/08 10:49:32;;;;;;;;;;;;;;;22.06;100.00;101341.13;5102849;28;19918;-70
2023/10/08 10:52:31;;;;;;;;;;;;;;;22.19;100.00;101339.16;5071320;28;19919;-70
2023/10/08 10:58:11;;;;;;;;;;;;;;;22.41;100.00;101340.69;5112561;28;19914;-70
2023/10/08 11:00:59;;;;;;;;;;;;;;;22.51;100.00;101345.03;5116932;28;20032;-70
2023/10/08 11:03:44;;;;;;;;;;;;;;;22.60;98.97;101345.75;5119209;28;19946;-70
2023/10/08 11:06:28;;;;;;;;;;;;;;;22.68;100.00;101347.63;5108505;28;19919;-70
2023/10/08 11:09:35;;;;;;;;;;;;;;;22.74;100.00;101345.38;5121213;28;20018;-70
2023/10/08 11:12:22;;;;;;;;;;;;;;;22.85;100.00;101342.88;5100218;28;20318;-74
2023/10/08 11:15:14;;;;;;;;;;;;;;;23.00;100.00;101339.28;5106911;28;19915;-74
2023/10/08 11:17:59;;;;;;;;;;;;;;;23.19;100.00;101335.81;5121028;28;19969;-74
2023/10/08 11:20:46;;;;;;;;;;;;;;;23.38;100.00;101343.66;5101624;28;19915;-73
2023/10/08 11:23:37;;;;;;;;;;;;;;;23.52;92.21;101338.38;5110308;28;19914;-74
2023/10/08 11:26:31;;;;;;;;;;;;;;;23.62;91.39;101345.53;5098919;28;19919;-74
2023/10/08 11:29:24;;;;;;;;;;;;;;;23.76;91.28;101354.44;5096668;28;19914;-73
2023/10/08 11:32:12;;;;;;;;;;;;;;;23.85;98.01;101340.94;5101819;28;19919;-72
2023/10/08 11:34:59;;;;;;;;;;;;;;;23.97;94.46;101337.19;5098411;28;19919;-73
2023/10/08 11:37:50;;;;;;;;;;;;;;;24.08;90.41;101338.28;5099165;28;20010;-73
2023/10/08 11:40:51;;;;;;;;;;;;;;;24.21;95.44;101333.34;5114236;28;20264;-73
2023/10/08 11:43:36;;;;;;;;;;;;;;;24.36;86.21;101326.00;5113462;28;19913;-73
2023/10/08 11:46:25;;;;;;;;;;;;;;;24.51;84.48;101321.50;5088861;28;19915;-73
2023/10/08 11:49:17;;;;;;;;;;;;;;;24.66;85.32;101320.66;5100554;28;19915;-72
2023/10/08 11:52:02;;;;;;;;;;;;;;;24.75;83.38;101317.59;5100876;28;20030;-73
2023/10/08 11:54:48;;;;;;;;;;;;;;;24.80;79.98;101305.13;5088176;28;19960;-73
2023/10/08 11:57:35;;;;;;;;;;;;;;;24.90;82.17;101307.34;5108198;28;20138;-73
2023/10/08 12:00:19;;;;;;;;;;;;;;;24.94;73.21;101316.78;5105088;28;20355;-73
2023/10/08 12:03:05;;;;;;;;;;;;;;;25.01;80.07;101308.41;5104008;28;19919;-73
2023/10/08 12:05:49;;;;;;;;;;;;;;;25.13;70.26;101305.44;5120085;28;20027;-73
2023/10/08 12:08:39;;;;;;;;;;;;;;;25.19;77.92;101301.13;5089556;28;19968;-73
2023/10/08 12:11:30;;;;;;;;;;;;;;;25.28;78.00;101292.34;5104896;28;19965;-73
2023/10/08 12:14:18;;;;;;;;;;;;;;;25.35;78.44;101291.66;5106858;28;20000;-74
2023/10/08 12:17:10;;;;;;;;;;;;;;;25.46;68.79;101284.16;5104901;28;19930;-76
2023/10/08 12:19:55;;;;;;;;;;;;;;;25.51;67.91;101283.84;5078266;28;20260;-76
2023/10/08 12:22:39;;;;;;;;;;;;;;;25.57;61.16;101275.81;5117045;28;20045;-76
2023/10/08 12:25:23;;;;;;;;;;;;;;;25.62;62.88;101273.50;5110930;28;19918;-78
2023/10/08 12:28:07;;;;;;;;;;;;;;;25.64;70.93;101265.41;5099488;28;19914;-78
2023/10/08 12:30:52;;;;;;;;;;;;;;;25.69;75.33;101269.16;5078549;28;19918;-78
2023/10/08 12:33:37;;;;;;;;;;;;;;;25.69;66.19;101263.47;5119172;28;19950;-78
2023/10/08 12:36:23;;;;;;;;;;;;;;;25.71;72.79;101258.19;5110116;27;20019;-78
2023/10/08 12:39:14;;;;;;;;;;;;;;;25.77;78.52;101259.50;5101119;27;20371;-78
2023/10/08 12:42:04;;;;;;;;;;;;;;;25.81;73.89;101252.69;5099807;27;19915;-78
2023/10/08 12:44:49;;;;;;;;;;;;;;;25.82;61.65;101260.00;5112384;28;20359;-78
2023/10/08 12:47:36;;;;;;;;;;;;;;;25.88;59.76;101257.69;5101796;27;19965;-78
2023/10/08 12:50:29;;;;;;;;;;;;;;;25.92;64.30;101264.28;5104665;28;19915;-78
2023/10/08 12:53:15;;;;;;;;;;;;;;;25.98;58.68;101265.59;5112472;28;19980;-78
2023/10/08 12:56:05;;;;;;;;;;;;;;;26.02;60.39;101257.97;5100496;27;20255;-78
2023/10/08 12:58:49;;;;;;;;;;;;;;;26.04;58.94;101255.53;5090592;28;19958;-78
2023/10/08 13:01:41;;;;;;;;;;;;;;;26.06;66.14;101258.81;5107142;28;19966;-78
2023/10/08 13:04:28;;;;;;;;;;;;;;;26.14;65.64;101256.09;5097599;28;20363;-78
2023/10/08 13:07:14;;;;;;;;;;;;;;;26.18;64.16;101256.97;5095879;28;19930;-77
2023/10/08 13:09:59;;;;;;;;;;;;;;;26.25;71.90;101260.75;5104889;28;19991;-78
2023/10/08 13:12:42;;;;;;;;;;;;;;;26.33;66.36;101244.59;5111957;28;20067;-77
2023/10/08 13:15:26;;;;;;;;;;;;;;;26.44;59.32;101242.72;5117909;28;19918;-78
2023/10/08 13:18:10;;;;;;;;;;;;;;;26.45;57.90;101235.00;5096419;28;20437;-78
2023/10/08 13:20:55;;;;;;;;;;;;;;;26.50;58.01;101240.38;5094216;28;19918;-78
2023/10/08 13:23:39;;;;;;;;;;;;;;;26.54;55.21;101238.41;5108818;28;20364;-78
2023/10/08 13:26:24;;;;;;;;;;;;;;;26.59;50.64;101234.41;5070216;28;20052;-78
2023/10/08 13:29:09;;;;;;;;;;;;;;;26.62;52.72;101227.94;5082712;28;19922;-78
2023/10/08 13:31:54;;;;;;;;;;;;;;;26.67;53.16;101233.28;5114974;27;19922;-78
2023/10/08 13:34:38;;;;;;;;;;;;;;;26.67;55.66;101231.25;5094533;28;19933;-78
2023/10/08 13:37:22;;;;;;;;;;;;;;;26.65;52.25;101232.84;5115676;28;19923;-78
2023/10/08 13:40:06;;;;;;;;;;;;;;;26.67;50.72;101233.28;5105234;28;19960;-78
2023/10/08 13:42:52;;;;;;;;;;;;;;;26.70;49.12;101229.66;5112833;28;19914;-77
2023/10/08 13:45:37;;;;;;;;;;;;;;;26.74;48.55;101230.53;5101722;28;19915;-78
2023/10/08 13:48:24;;;;;;;;;;;;;;;26.71;48.64;101229.25;5102775;28;20312;-78
2023/10/08 13:51:13;;;;;;;;;;;;;;;26.67;49.32;101219.88;5117512;28;19935;-78
2023/10/08 13:54:00;;;;;;;;;;;;;;;26.65;49.38;101221.47;5085503;28;19914;-78
2023/10/08 13:56:48;;;;;;;;;;;;;;;26.61;54.51;101215.72;5114372;28;19915;-77
2023/10/08 13:59:32;;;;;;;;;;;;;;;26.58;53.21;101210.81;5109765;28;19914;-77
2023/10/08 14:02:19;;;;;;;;;;;;;;;26.51;57.94;101208.66;5091429;28;19963;-77
2023/10/08 14:05:08;;;;;;;;;;;;;;;26.49;53.67;101208.22;5088051;28;19919;-77
2023/10/08 14:07:53;;;;;;;;;;;;;;;26.48;52.10;101209.41;5107860;28;19915;-77
2023/10/08 14:10:36;;;;;;;;;;;;;;;26.44;53.46;101207.72;5117904;28;20375;-77
2023/10/08 14:13:20;;;;;;;;;;;;;;;26.37;54.74;101205.59;5070790;28;19952;-77
2023/10/08 14:16:08;;;;;;;;;;;;;;;26.31;55.58;101201.44;5103048;28;20064;-77
2023/10/08 14:18:55;;;;;;;;;;;;;;;26.24;57.05;101195.66;5110099;28;19954;-77
2023/10/08 14:21:49;;;;;;;;;;;;;;;26.14;55.06;101190.63;5079646;28;19915;-77
2023/10/08 14:24:37;;;;;;;;;;;;;;;26.03;56.89;101193.31;5104789;28;19983;-77
2023/10/08 14:27:26;;;;;;;;;;;;;;;25.94;58.73;101192.78;5107003;28;20483;-78
2023/10/08 14:30:20;;;;;;;;;;;;;;;25.85;63.01;101190.19;5117899;28;20401;-78
2023/10/08 14:33:08;;;;;;;;;;;;;;;25.76;69.08;101187.56;5117015;28;20354;-78
2023/10/08 14:45:02;;;;;;;;;;;;;;;25.43;67.99;101174.03;5109995;28;19915;-73
2023/10/08 14:47:46;;;;;;;;;;;;;;;25.34;70.95;101174.28;5117817;28;20372;-73
2023/10/08 14:50:33;;;;;;;;;;;;;;;25.28;69.47;101174.97;5104091;28;19919;-73
2023/10/08 14:53:17;;;;;;;;;;;;;;;25.23;68.51;101175.28;5097513;28;19914;-73
2023/10/08 14:56:04;;;;;;;;;;;;;;;25.14;70.58;101173.53;5107948;28;19915;-73
2023/10/08 14:58:48;;;;;;;;;;;;;;;25.10;76.48;101172.63;5103723;28;19919;-73
2023/10/08 15:01:35;;;;;;;;;;;;;;;25.05;66.90;101167.25;5088791;28;19957;-73
2023/10/08 15:04:19;;;;;;;;;;;;;;;25.01;67.58;101165.50;5100697;28;19915;-73
2023/10/08 15:07:03;;;;;;;;;;;;;;;24.95;72.73;101162.16;5105189;28;19919;-73
2023/10/08 15:09:49;;;;;;;;;;;;;;;24.89;75.34;101163.66;5099026;28;20400;-74